sensor_id;sensor_type;location;lat;lon;timestamp;pressure;altitude;pressure_sealevel;temperature
15062;BMP180;7630;50.306;8.566;2024-03-25T00:03:43;96857.00;;;6.70
15062;BMP180;7630;50.306;8.566;2024-03-25T00:07:45;96853.00;;;6.30
15062;BMP180;7630;50.306;8.566;2024-03-25T00:11:46;96852.00;;;7.70
15062;BMP180;7630;50.306;8.566;2024-03-25T00:15:47;96864.00;;;6.80
15062;BMP180;7630;50.306;8.566;2024-03-25T00:19:48;96854.00;;;7.10
15062;BMP180;7630;50.306;8.566;2024-03-25T00:23:53;96866.00;;;7.20
15062;BMP180;7630;50.306;8.566;2024-03-25T00:27:56;96860.00;;;7.00
15062;BMP180;7630;50.306;8.566;2024-03-25T00:31:58;96864.00;;;6.60
15062;BMP180;7630;50.306;8.566;2024-03-25T00:35:59;96858.00;;;6.60
15062;BMP180;7630;50.306;8.566;2024-03-25T00:40:01;96859.00;;;7.20
15062;BMP180;7630;50.306;8.566;2024-03-25T00:44:02;96866.00;;;6.90
15062;BMP180;7630;50.306;8.566;2024-03-25T00:48:04;96866.00;;;7.50
15062;BMP180;7630;50.306;8.566;2024-03-25T00:52:05;96864.00;;;7.40
15062;BMP180;7630;50.306;8.566;2024-03-25T00:56:06;96850.00;;;7.00
15062;BMP180;7630;50.306;8.566;2024-03-25T01:00:07;96851.00;;;7.10
15062;BMP180;7630;50.306;8.566;2024-03-25T01:04:09;96839.00;;;6.20
15062;BMP180;7630;50.306;8.566;2024-03-25T01:08:10;96866.00;;;6.80
15062;BMP180;7630;50.306;8.566;2024-03-25T01:12:12;96859.00;;;6.70
15062;BMP180;7630;50.306;8.566;2024-03-25T01:16:13;96864.00;;;6.90
15062;BMP180;7630;50.306;8.566;2024-03-25T01:20:14;96869.00;;;6.60
15062;BMP180;7630;50.306;8.566;2024-03-25T01:24:16;96863.00;;;6.50
15062;BMP180;7630;50.306;8.566;2024-03-25T01:28:18;96873.00;;;7.00
15062;BMP180;7630;50.306;8.566;2024-03-25T01:32:20;96872.00;;;6.80
15062;BMP180;7630;50.306;8.566;2024-03-25T01:36:21;96869.00;;;6.90
15062;BMP180;7630;50.306;8.566;2024-03-25T01:40:22;96872.00;;;7.60
15062;BMP180;7630;50.306;8.566;2024-03-25T01:44:23;96872.00;;;8.00
15062;BMP180;7630;50.306;8.566;2024-03-25T01:48:25;96882.00;;;8.20
15062;BMP180;7630;50.306;8.566;2024-03-25T01:52:27;96874.00;;;7.60
15062;BMP180;7630;50.306;8.566;2024-03-25T01:56:31;96873.00;;;6.30
15062;BMP180;7630;50.306;8.566;2024-03-25T02:00:34;96870.00;;;7.00
15062;BMP180;7630;50.306;8.566;2024-03-25T02:04:35;96876.00;;;7.80
15062;BMP180;7630;50.306;8.566;2024-03-25T02:08:37;96873.00;;;7.00
15062;BMP180;7630;50.306;8.566;2024-03-25T02:12:40;96882.00;;;7.00
15062;BMP180;7630;50.306;8.566;2024-03-25T02:16:42;96879.00;;;6.60
15062;BMP180;7630;50.306;8.566;2024-03-25T02:20:44;96876.00;;;7.00
15062;BMP180;7630;50.306;8.566;2024-03-25T02:24:46;96876.00;;;7.00
15062;BMP180;7630;50.306;8.566;2024-03-25T02:28:48;96877.00;;;6.60
15062;BMP180;7630;50.306;8.566;2024-03-25T02:32:49;96774.00;;;6.80
15062;BMP180;7630;50.306;8.566;2024-03-25T02:36:51;96880.00;;;6.60
15062;BMP180;7630;50.306;8.566;2024-03-25T02:40:52;96882.00;;;6.50
15062;BMP180;7630;50.306;8.566;2024-03-25T02:44:56;96876.00;;;7.30
15062;BMP180;7630;50.306;8.566;2024-03-25T02:48:57;96871.00;;;7.50
15062;BMP180;7630;50.306;8.566;2024-03-25T02:52:58;96875.00;;;6.70
15062;BMP180;7630;50.306;8.566;2024-03-25T02:56:59;96882.00;;;7.10
15062;BMP180;7630;50.306;8.566;2024-03-25T03:01:00;96888.00;;;7.20
15062;BMP180;7630;50.306;8.566;2024-03-25T03:05:01;96879.00;;;6.30
15062;BMP180;7630;50.306;8.566;2024-03-25T03:09:04;96916.00;;;5.80
15062;BMP180;7630;50.306;8.566;2024-03-25T03:13:06;96893.00;;;6.60
15062;BMP180;7630;50.306;8.566;2024-03-25T03:17:07;96896.00;;;6.20
15062;BMP180;7630;50.306;8.566;2024-03-25T03:21:08;96894.00;;;5.90
15062;BMP180;7630;50.306;8.566;2024-03-25T03:25:09;96902.00;;;6.00
15062;BMP180;7630;50.306;8.566;2024-03-25T03:29:10;96895.00;;;6.30
15062;BMP180;7630;50.306;8.566;2024-03-25T03:33:11;96750.00;;;6.60
15062;BMP180;7630;50.306;8.566;2024-03-25T03:37:12;96892.00;;;5.80
15062;BMP180;7630;50.306;8.566;2024-03-25T03:41:13;96890.00;;;6.40
15062;BMP180;7630;50.306;8.566;2024-03-25T03:45:14;96896.00;;;6.40
15062;BMP180;7630;50.306;8.566;2024-03-25T03:49:15;96895.00;;;6.80
15062;BMP180;7630;50.306;8.566;2024-03-25T03:53:17;96894.00;;;7.30
15062;BMP180;7630;50.306;8.566;2024-03-25T03:57:18;96895.00;;;6.30
15062;BMP180;7630;50.306;8.566;2024-03-25T04:01:19;96889.00;;;6.50
15062;BMP180;7630;50.306;8.566;2024-03-25T04:05:20;96883.00;;;6.30
15062;BMP180;7630;50.306;8.566;2024-03-25T04:09:21;96882.00;;;6.40
15062;BMP180;7630;50.306;8.566;2024-03-25T04:13:24;96874.00;;;6.50
15062;BMP180;7630;50.306;8.566;2024-03-25T04:17:25;96887.00;;;7.30
15062;BMP180;7630;50.306;8.566;2024-03-25T04:21:26;96882.00;;;7.90
15062;BMP180;7630;50.306;8.566;2024-03-25T04:25:27;96895.00;;;7.60
15062;BMP180;7630;50.306;8.566;2024-03-25T04:29:28;96899.00;;;8.10
15062;BMP180;7630;50.306;8.566;2024-03-25T04:33:30;96890.00;;;7.70
15062;BMP180;7630;50.306;8.566;2024-03-25T04:37:31;96893.00;;;7.70
15062;BMP180;7630;50.306;8.566;2024-03-25T04:41:32;96897.00;;;6.90
15062;BMP180;7630;50.306;8.566;2024-03-25T04:45:33;96896.00;;;6.60
15062;BMP180;7630;50.306;8.566;2024-03-25T04:49:34;96893.00;;;6.70
15062;BMP180;7630;50.306;8.566;2024-03-25T04:53:35;96890.00;;;7.00
15062;BMP180;7630;50.306;8.566;2024-03-25T04:57:36;96890.00;;;6.70
15062;BMP180;7630;50.306;8.566;2024-03-25T05:01:37;96893.00;;;6.60
15062;BMP180;7630;50.306;8.566;2024-03-25T05:05:38;96894.00;;;6.60
15062;BMP180;7630;50.306;8.566;2024-03-25T05:09:39;96891.00;;;6.20
15062;BMP180;7630;50.306;8.566;2024-03-25T05:13:40;96900.00;;;6.40
15062;BMP180;7630;50.306;8.566;2024-03-25T05:17:41;96896.00;;;6.40
15062;BMP180;7630;50.306;8.566;2024-03-25T05:21:43;96912.00;;;6.80
15062;BMP180;7630;50.306;8.566;2024-03-25T05:25:44;96910.00;;;6.60
15062;BMP180;7630;50.306;8.566;2024-03-25T05:29:45;96920.00;;;6.80
15062;BMP180;7630;50.306;8.566;2024-03-25T05:33:46;96930.00;;;6.60
15062;BMP180;7630;50.306;8.566;2024-03-25T05:37:47;96933.00;;;7.10
15062;BMP180;7630;50.306;8.566;2024-03-25T05:41:49;96930.00;;;7.10
15062;BMP180;7630;50.306;8.566;2024-03-25T05:45:55;96929.00;;;7.50
15062;BMP180;7630;50.306;8.566;2024-03-25T05:49:54;96941.00;;;7.60
15062;BMP180;7630;50.306;8.566;2024-03-25T05:53:55;96943.00;;;7.70
15062;BMP180;7630;50.306;8.566;2024-03-25T05:57:56;96947.00;;;7.80
15062;BMP180;7630;50.306;8.566;2024-03-25T06:01:57;96958.00;;;8.40
15062;BMP180;7630;50.306;8.566;2024-03-25T06:05:58;96953.00;;;8.40
15062;BMP180;7630;50.306;8.566;2024-03-25T06:09:59;96963.00;;;8.70
15062;BMP180;7630;50.306;8.566;2024-03-25T06:14:00;96968.00;;;8.80
15062;BMP180;7630;50.306;8.566;2024-03-25T06:18:01;96952.00;;;9.20
15062;BMP180;7630;50.306;8.566;2024-03-25T06:22:03;96949.00;;;9.40
15062;BMP180;7630;50.306;8.566;2024-03-25T06:26:04;96940.00;;;9.00
15062;BMP180;7630;50.306;8.566;2024-03-25T06:30:06;96941.00;;;9.00
15062;BMP180;7630;50.306;8.566;2024-03-25T06:34:26;96947.00;;;8.70
15062;BMP180;7630;50.306;8.566;2024-03-25T06:38:27;96957.00;;;8.20
15062;BMP180;7630;50.306;8.566;2024-03-25T06:42:28;96960.00;;;8.30
15062;BMP180;7630;50.306;8.566;2024-03-25T06:46:29;96961.00;;;7.80
15062;BMP180;7630;50.306;8.566;2024-03-25T06:50:30;96973.00;;;8.60
15062;BMP180;7630;50.306;8.566;2024-03-25T06:54:31;96979.00;;;9.50
15062;BMP180;7630;50.306;8.566;2024-03-25T06:58:32;96984.00;;;8.30
15062;BMP180;7630;50.306;8.566;2024-03-25T07:02:34;96982.00;;;8.60
15062;BMP180;7630;50.306;8.566;2024-03-25T07:06:35;96992.00;;;8.60
15062;BMP180;7630;50.306;8.566;2024-03-25T07:10:36;96975.00;;;9.20
15062;BMP180;7630;50.306;8.566;2024-03-25T07:14:37;96990.00;;;9.00
15062;BMP180;7630;50.306;8.566;2024-03-25T07:18:38;96992.00;;;9.50
15062;BMP180;7630;50.306;8.566;2024-03-25T07:22:39;96996.00;;;9.50
15062;BMP180;7630;50.306;8.566;2024-03-25T07:26:40;96999.00;;;9.50
15062;BMP180;7630;50.306;8.566;2024-03-25T07:30:42;97010.00;;;9.60
15062;BMP180;7630;50.306;8.566;2024-03-25T07:34:43;97002.00;;;9.50
15062;BMP180;7630;50.306;8.566;2024-03-25T07:38:44;96999.00;;;8.80
15062;BMP180;7630;50.306;8.566;2024-03-25T07:42:45;97000.00;;;8.80
15062;BMP180;7630;50.306;8.566;2024-03-25T07:46:46;97000.00;;;7.10
15062;BMP180;7630;50.306;8.566;2024-03-25T07:50:47;97006.00;;;7.90
15062;BMP180;7630;50.306;8.566;2024-03-25T07:54:48;97003.00;;;9.20
15062;BMP180;7630;50.306;8.566;2024-03-25T07:58:49;96989.00;;;10.20
15062;BMP180;7630;50.306;8.566;2024-03-25T08:02:50;97013.00;;;9.90
15062;BMP180;7630;50.306;8.566;2024-03-25T08:06:51;97011.00;;;10.20
15062;BMP180;7630;50.306;8.566;2024-03-25T08:10:52;97009.00;;;9.60
15062;BMP180;7630;50.306;8.566;2024-03-25T08:14:54;97010.00;;;9.60
15062;BMP180;7630;50.306;8.566;2024-03-25T08:18:55;97016.00;;;10.10
15062;BMP180;7630;50.306;8.566;2024-03-25T08:22:56;97018.00;;;10.10
15062;BMP180;7630;50.306;8.566;2024-03-25T08:26:57;97012.00;;;9.50
15062;BMP180;7630;50.306;8.566;2024-03-25T08:30:58;97007.00;;;10.30
15062;BMP180;7630;50.306;8.566;2024-03-25T08:34:59;97013.00;;;10.70
15062;BMP180;7630;50.306;8.566;2024-03-25T08:39:01;97010.00;;;10.80
15062;BMP180;7630;50.306;8.566;2024-03-25T08:43:02;97016.00;;;10.60
15062;BMP180;7630;50.306;8.566;2024-03-25T08:47:03;97018.00;;;10.00
15062;BMP180;7630;50.306;8.566;2024-03-25T08:51:05;97009.00;;;9.70
15062;BMP180;7630;50.306;8.566;2024-03-25T08:55:06;97011.00;;;9.90
15062;BMP180;7630;50.306;8.566;2024-03-25T08:59:08;97008.00;;;10.50
15062;BMP180;7630;50.306;8.566;2024-03-25T09:03:10;97008.00;;;11.60
15062;BMP180;7630;50.306;8.566;2024-03-25T09:07:13;97017.00;;;11.60
15062;BMP180;7630;50.306;8.566;2024-03-25T09:11:15;97013.00;;;12.60
15062;BMP180;7630;50.306;8.566;2024-03-25T09:15:16;97004.00;;;12.20
15062;BMP180;7630;50.306;8.566;2024-03-25T09:19:17;97002.00;;;12.10
15062;BMP180;7630;50.306;8.566;2024-03-25T09:23:18;97000.00;;;10.90
15062;BMP180;7630;50.306;8.566;2024-03-25T09:27:19;97002.00;;;12.20
15062;BMP180;7630;50.306;8.566;2024-03-25T09:31:22;96998.00;;;11.20
15062;BMP180;7630;50.306;8.566;2024-03-25T09:35:23;96997.00;;;11.80
15062;BMP180;7630;50.306;8.566;2024-03-25T09:39:24;96982.00;;;9.70
15062;BMP180;7630;50.306;8.566;2024-03-25T09:43:31;96979.00;;;10.20
15062;BMP180;7630;50.306;8.566;2024-03-25T09:47:30;96879.00;;;12.00
15062;BMP180;7630;50.306;8.566;2024-03-25T09:51:32;96985.00;;;11.20
15062;BMP180;7630;50.306;8.566;2024-03-25T09:55:33;96976.00;;;12.50
15062;BMP180;7630;50.306;8.566;2024-03-25T09:59:34;96972.00;;;12.40
15062;BMP180;7630;50.306;8.566;2024-03-25T10:03:36;96974.00;;;13.60
15062;BMP180;7630;50.306;8.566;2024-03-25T10:07:37;96979.00;;;13.00
15062;BMP180;7630;50.306;8.566;2024-03-25T10:11:38;96966.00;;;12.50
15062;BMP180;7630;50.306;8.566;2024-03-25T10:15:39;96958.00;;;11.90
15062;BMP180;7630;50.306;8.566;2024-03-25T10:19:40;96954.00;;;11.70
15062;BMP180;7630;50.306;8.566;2024-03-25T10:23:43;96955.00;;;12.70
15062;BMP180;7630;50.306;8.566;2024-03-25T10:27:56;96946.00;;;13.10
15062;BMP180;7630;50.306;8.566;2024-03-25T10:32:01;96940.00;;;13.60
15062;BMP180;7630;50.306;8.566;2024-03-25T10:36:07;96928.00;;;12.80
15062;BMP180;7630;50.306;8.566;2024-03-25T10:40:10;96915.00;;;12.70
15062;BMP180;7630;50.306;8.566;2024-03-25T10:44:13;96922.00;;;12.60
15062;BMP180;7630;50.306;8.566;2024-03-25T10:48:19;96927.00;;;13.50
15062;BMP180;7630;50.306;8.566;2024-03-25T10:52:26;96918.00;;;12.90
15062;BMP180;7630;50.306;8.566;2024-03-25T10:56:27;96916.00;;;13.10
15062;BMP180;7630;50.306;8.566;2024-03-25T11:00:28;96908.00;;;14.50
15062;BMP180;7630;50.306;8.566;2024-03-25T11:04:30;96905.00;;;13.80
15062;BMP180;7630;50.306;8.566;2024-03-25T11:08:32;96904.00;;;13.70
15062;BMP180;7630;50.306;8.566;2024-03-25T11:12:37;96888.00;;;14.20
15062;BMP180;7630;50.306;8.566;2024-03-25T11:16:39;96889.00;;;13.70
15062;BMP180;7630;50.306;8.566;2024-03-25T11:20:40;96884.00;;;12.20
15062;BMP180;7630;50.306;8.566;2024-03-25T11:24:43;96884.00;;;12.40
15062;BMP180;7630;50.306;8.566;2024-03-25T11:28:44;96874.00;;;13.80
15062;BMP180;7630;50.306;8.566;2024-03-25T11:32:54;96879.00;;;15.00
15062;BMP180;7630;50.306;8.566;2024-03-25T11:36:57;96871.00;;;15.00
15062;BMP180;7630;50.306;8.566;2024-03-25T11:40:58;96869.00;;;15.20
15062;BMP180;7630;50.306;8.566;2024-03-25T11:45:00;96871.00;;;14.10
15062;BMP180;7630;50.306;8.566;2024-03-25T11:49:04;96874.00;;;14.20
15062;BMP180;7630;50.306;8.566;2024-03-25T11:53:05;96863.00;;;14.40
15062;BMP180;7630;50.306;8.566;2024-03-25T11:57:07;96849.00;;;10.90
15062;BMP180;7630;50.306;8.566;2024-03-25T12:01:09;96843.00;;;11.70
15062;BMP180;7630;50.306;8.566;2024-03-25T12:05:11;96831.00;;;12.70
15062;BMP180;7630;50.306;8.566;2024-03-25T12:09:12;96829.00;;;12.70
15062;BMP180;7630;50.306;8.566;2024-03-25T12:13:32;96820.00;;;14.30
15062;BMP180;7630;50.306;8.566;2024-03-25T12:17:33;96816.00;;;13.80
15062;BMP180;7630;50.306;8.566;2024-03-25T12:21:35;96828.00;;;14.50
15062;BMP180;7630;50.306;8.566;2024-03-25T12:25:37;96812.00;;;15.60
15062;BMP180;7630;50.306;8.566;2024-03-25T12:29:39;96797.00;;;13.50
15062;BMP180;7630;50.306;8.566;2024-03-25T12:33:41;96783.00;;;13.30
15062;BMP180;7630;50.306;8.566;2024-03-25T12:37:44;96783.00;;;12.90
15062;BMP180;7630;50.306;8.566;2024-03-25T12:41:45;96776.00;;;10.90
15062;BMP180;7630;50.306;8.566;2024-03-25T12:45:46;96765.00;;;11.40
15062;BMP180;7630;50.306;8.566;2024-03-25T12:49:48;96761.00;;;13.20
15062;BMP180;7630;50.306;8.566;2024-03-25T12:53:49;96753.00;;;13.30
15062;BMP180;7630;50.306;8.566;2024-03-25T12:57:52;96759.00;;;15.80
15062;BMP180;7630;50.306;8.566;2024-03-25T13:01:53;96746.00;;;17.60
15062;BMP180;7630;50.306;8.566;2024-03-25T13:05:54;96753.00;;;19.10
15062;BMP180;7630;50.306;8.566;2024-03-25T13:09:57;96741.00;;;20.20
15062;BMP180;7630;50.306;8.566;2024-03-25T13:13:59;96746.00;;;18.30
15062;BMP180;7630;50.306;8.566;2024-03-25T13:18:01;96726.00;;;14.60
15062;BMP180;7630;50.306;8.566;2024-03-25T13:22:02;96729.00;;;16.70
15062;BMP180;7630;50.306;8.566;2024-03-25T13:26:05;96721.00;;;13.80
15062;BMP180;7630;50.306;8.566;2024-03-25T13:30:07;96717.00;;;16.80
15062;BMP180;7630;50.306;8.566;2024-03-25T13:34:09;96712.00;;;17.10
15062;BMP180;7630;50.306;8.566;2024-03-25T13:38:11;96711.00;;;15.90
15062;BMP180;7630;50.306;8.566;2024-03-25T13:42:12;96705.00;;;14.00
15062;BMP180;7630;50.306;8.566;2024-03-25T13:46:13;96701.00;;;13.90
15062;BMP180;7630;50.306;8.566;2024-03-25T13:50:16;96702.00;;;12.70
15062;BMP180;7630;50.306;8.566;2024-03-25T13:54:18;96691.00;;;14.20
15062;BMP180;7630;50.306;8.566;2024-03-25T13:58:19;96689.00;;;13.00
15062;BMP180;7630;50.306;8.566;2024-03-25T14:02:20;96680.00;;;14.20
15062;BMP180;7630;50.306;8.566;2024-03-25T14:06:21;96677.00;;;14.80
15062;BMP180;7630;50.306;8.566;2024-03-25T14:10:22;96671.00;;;16.50
15062;BMP180;7630;50.306;8.566;2024-03-25T14:14:23;96670.00;;;15.20
15062;BMP180;7630;50.306;8.566;2024-03-25T14:18:25;96669.00;;;13.70
15062;BMP180;7630;50.306;8.566;2024-03-25T14:22:26;96668.00;;;13.10
15062;BMP180;7630;50.306;8.566;2024-03-25T14:26:27;96659.00;;;12.90
15062;BMP180;7630;50.306;8.566;2024-03-25T14:30:28;96663.00;;;13.00
15062;BMP180;7630;50.306;8.566;2024-03-25T14:34:31;96648.00;;;13.30
15062;BMP180;7630;50.306;8.566;2024-03-25T14:38:33;96647.00;;;15.10
15062;BMP180;7630;50.306;8.566;2024-03-25T14:42:35;96641.00;;;14.50
15062;BMP180;7630;50.306;8.566;2024-03-25T14:46:37;96636.00;;;14.10
15062;BMP180;7630;50.306;8.566;2024-03-25T14:50:38;96629.00;;;13.90
15062;BMP180;7630;50.306;8.566;2024-03-25T14:54:40;96623.00;;;13.00
15062;BMP180;7630;50.306;8.566;2024-03-25T14:58:41;96603.00;;;13.80
15062;BMP180;7630;50.306;8.566;2024-03-25T15:02:42;96605.00;;;13.90
15062;BMP180;7630;50.306;8.566;2024-03-25T15:06:43;96596.00;;;12.70
15062;BMP180;7630;50.306;8.566;2024-03-25T15:10:47;96598.00;;;13.00
15062;BMP180;7630;50.306;8.566;2024-03-25T15:14:48;96588.00;;;14.10
15062;BMP180;7630;50.306;8.566;2024-03-25T15:18:50;96587.00;;;13.10
15062;BMP180;7630;50.306;8.566;2024-03-25T15:22:52;96593.00;;;12.10
15062;BMP180;7630;50.306;8.566;2024-03-25T15:26:53;96578.00;;;11.30
15062;BMP180;7630;50.306;8.566;2024-03-25T15:30:55;96569.00;;;11.80
15062;BMP180;7630;50.306;8.566;2024-03-25T15:34:59;96564.00;;;12.20
15062;BMP180;7630;50.306;8.566;2024-03-25T15:39:01;96557.00;;;11.30
15062;BMP180;7630;50.306;8.566;2024-03-25T15:43:03;96538.00;;;12.30
15062;BMP180;7630;50.306;8.566;2024-03-25T15:47:04;96544.00;;;12.10
15062;BMP180;7630;50.306;8.566;2024-03-25T15:51:05;96534.00;;;12.80
15062;BMP180;7630;50.306;8.566;2024-03-25T15:55:08;96548.00;;;11.80
15062;BMP180;7630;50.306;8.566;2024-03-25T15:59:09;96542.00;;;12.30
15062;BMP180;7630;50.306;8.566;2024-03-25T16:03:11;96534.00;;;11.20
15062;BMP180;7630;50.306;8.566;2024-03-25T16:07:12;96536.00;;;10.20
15062;BMP180;7630;50.306;8.566;2024-03-25T16:11:17;96527.00;;;11.80
15062;BMP180;7630;50.306;8.566;2024-03-25T16:15:18;96532.00;;;12.20
15062;BMP180;7630;50.306;8.566;2024-03-25T16:19:19;96524.00;;;11.80
15062;BMP180;7630;50.306;8.566;2024-03-25T16:23:20;96514.00;;;10.80
15062;BMP180;7630;50.306;8.566;2024-03-25T16:27:22;96515.00;;;10.60
15062;BMP180;7630;50.306;8.566;2024-03-25T16:31:23;96512.00;;;12.00
15062;BMP180;7630;50.306;8.566;2024-03-25T16:35:24;96507.00;;;11.90
15062;BMP180;7630;50.306;8.566;2024-03-25T16:39:26;96498.00;;;10.90
15062;BMP180;7630;50.306;8.566;2024-03-25T16:43:27;96502.00;;;11.60
15062;BMP180;7630;50.306;8.566;2024-03-25T16:47:28;96492.00;;;13.00
15062;BMP180;7630;50.306;8.566;2024-03-25T16:51:29;96494.00;;;12.50
15062;BMP180;7630;50.306;8.566;2024-03-25T16:55:30;96483.00;;;11.50
15062;BMP180;7630;50.306;8.566;2024-03-25T16:59:32;96483.00;;;12.90
15062;BMP180;7630;50.306;8.566;2024-03-25T17:03:35;96477.00;;;11.90
15062;BMP180;7630;50.306;8.566;2024-03-25T17:07:36;96484.00;;;12.10
15062;BMP180;7630;50.306;8.566;2024-03-25T17:11:39;96483.00;;;12.10
15062;BMP180;7630;50.306;8.566;2024-03-25T17:15:40;96478.00;;;11.90
15062;BMP180;7630;50.306;8.566;2024-03-25T17:19:42;96486.00;;;12.30
15062;BMP180;7630;50.306;8.566;2024-03-25T17:23:43;96486.00;;;12.70
15062;BMP180;7630;50.306;8.566;2024-03-25T17:27:44;96488.00;;;13.00
15062;BMP180;7630;50.306;8.566;2024-03-25T17:31:48;96474.00;;;12.70
15062;BMP180;7630;50.306;8.566;2024-03-25T17:35:49;96471.00;;;12.50
15062;BMP180;7630;50.306;8.566;2024-03-25T17:39:50;96463.00;;;12.10
15062;BMP180;7630;50.306;8.566;2024-03-25T17:43:51;96470.00;;;11.80
15062;BMP180;7630;50.306;8.566;2024-03-25T17:47:52;96462.00;;;12.10
15062;BMP180;7630;50.306;8.566;2024-03-25T17:51:54;96458.00;;;11.90
15062;BMP180;7630;50.306;8.566;2024-03-25T17:55:55;96459.00;;;11.70
15062;BMP180;7630;50.306;8.566;2024-03-25T17:59:58;96456.00;;;11.10
15062;BMP180;7630;50.306;8.566;2024-03-25T18:03:59;96439.00;;;11.00
15062;BMP180;7630;50.306;8.566;2024-03-25T18:08:00;96442.00;;;9.90
15062;BMP180;7630;50.306;8.566;2024-03-25T18:12:02;96432.00;;;11.10
15062;BMP180;7630;50.306;8.566;2024-03-25T18:16:06;96442.00;;;9.30
15062;BMP180;7630;50.306;8.566;2024-03-25T18:20:07;96432.00;;;9.80
15062;BMP180;7630;50.306;8.566;2024-03-25T18:24:10;96429.00;;;9.80
15062;BMP180;7630;50.306;8.566;2024-03-25T18:28:12;96424.00;;;9.80
15062;BMP180;7630;50.306;8.566;2024-03-25T18:32:13;96426.00;;;10.30
15062;BMP180;7630;50.306;8.566;2024-03-25T18:36:14;96420.00;;;10.10
15062;BMP180;7630;50.306;8.566;2024-03-25T18:40:16;96418.00;;;9.90
15062;BMP180;7630;50.306;8.566;2024-03-25T18:44:17;96409.00;;;9.40
15062;BMP180;7630;50.306;8.566;2024-03-25T18:48:20;96418.00;;;10.70
15062;BMP180;7630;50.306;8.566;2024-03-25T18:52:21;96404.00;;;10.40
15062;BMP180;7630;50.306;8.566;2024-03-25T18:56:24;96395.00;;;9.40
15062;BMP180;7630;50.306;8.566;2024-03-25T19:00:25;96391.00;;;9.30
15062;BMP180;7630;50.306;8.566;2024-03-25T19:04:26;96390.00;;;9.20
15062;BMP180;7630;50.306;8.566;2024-03-25T19:08:27;96382.00;;;9.40
15062;BMP180;7630;50.306;8.566;2024-03-25T19:12:28;96386.00;;;8.70
15062;BMP180;7630;50.306;8.566;2024-03-25T19:16:29;96385.00;;;8.90
15062;BMP180;7630;50.306;8.566;2024-03-25T19:20:30;96367.00;;;8.70
15062;BMP180;7630;50.306;8.566;2024-03-25T19:24:32;96370.00;;;8.10
15062;BMP180;7630;50.306;8.566;2024-03-25T19:28:33;96369.00;;;8.20
15062;BMP180;7630;50.306;8.566;2024-03-25T19:32:35;96219.00;;;8.20
15062;BMP180;7630;50.306;8.566;2024-03-25T19:36:36;96362.00;;;7.20
15062;BMP180;7630;50.306;8.566;2024-03-25T19:40:37;96360.00;;;6.80
15062;BMP180;7630;50.306;8.566;2024-03-25T19:44:38;96363.00;;;7.60
15062;BMP180;7630;50.306;8.566;2024-03-25T19:48:39;96354.00;;;7.70
15062;BMP180;7630;50.306;8.566;2024-03-25T19:52:40;96350.00;;;7.40
15062;BMP180;7630;50.306;8.566;2024-03-25T19:56:42;96349.00;;;7.20
15062;BMP180;7630;50.306;8.566;2024-03-25T20:00:43;96346.00;;;7.70
15062;BMP180;7630;50.306;8.566;2024-03-25T20:04:44;96353.00;;;7.60
15062;BMP180;7630;50.306;8.566;2024-03-25T20:08:46;96339.00;;;7.50
15062;BMP180;7630;50.306;8.566;2024-03-25T20:12:47;96342.00;;;7.20
15062;BMP180;7630;50.306;8.566;2024-03-25T20:16:48;96342.00;;;7.20
15062;BMP180;7630;50.306;8.566;2024-03-25T20:20:49;96341.00;;;7.20
15062;BMP180;7630;50.306;8.566;2024-03-25T20:24:50;96331.00;;;6.80
15062;BMP180;7630;50.306;8.566;2024-03-25T20:28:51;96342.00;;;8.00
15062;BMP180;7630;50.306;8.566;2024-03-25T20:32:53;96341.00;;;8.40
15062;BMP180;7630;50.306;8.566;2024-03-25T20:36:54;96329.00;;;7.70
15062;BMP180;7630;50.306;8.566;2024-03-25T20:40:55;96331.00;;;7.10
15062;BMP180;7630;50.306;8.566;2024-03-25T20:44:56;96326.00;;;7.00
15062;BMP180;7630;50.306;8.566;2024-03-25T20:48:57;96309.00;;;7.20
15062;BMP180;7630;50.306;8.566;2024-03-25T20:52:58;96316.00;;;8.20
15062;BMP180;7630;50.306;8.566;2024-03-25T20:56:59;96306.00;;;6.80
15062;BMP180;7630;50.306;8.566;2024-03-25T21:01:00;96298.00;;;7.10
15062;BMP180;7630;50.306;8.566;2024-03-25T21:05:02;96292.00;;;6.80
15062;BMP180;7630;50.306;8.566;2024-03-25T21:09:04;96291.00;;;6.80
15062;BMP180;7630;50.306;8.566;2024-03-25T21:13:05;96285.00;;;6.50
15062;BMP180;7630;50.306;8.566;2024-03-25T21:17:06;96274.00;;;6.70
15062;BMP180;7630;50.306;8.566;2024-03-25T21:21:07;96286.00;;;6.60
15062;BMP180;7630;50.306;8.566;2024-03-25T21:25:08;96257.00;;;6.60
15062;BMP180;7630;50.306;8.566;2024-03-25T21:29:10;96268.00;;;6.80
15062;BMP180;7630;50.306;8.566;2024-03-25T21:33:11;96267.00;;;6.80
15062;BMP180;7630;50.306;8.566;2024-03-25T21:37:12;96265.00;;;6.50
15062;BMP180;7630;50.306;8.566;2024-03-25T21:41:15;96263.00;;;6.90
15062;BMP180;7630;50.306;8.566;2024-03-25T21:45:16;96251.00;;;6.60
15062;BMP180;7630;50.306;8.566;2024-03-25T21:49:17;96248.00;;;6.90
15062;BMP180;7630;50.306;8.566;2024-03-25T21:53:18;96257.00;;;6.30
15062;BMP180;7630;50.306;8.566;2024-03-25T21:57:20;96242.00;;;6.60
15062;BMP180;7630;50.306;8.566;2024-03-25T22:01:21;96242.00;;;6.60
15062;BMP180;7630;50.306;8.566;2024-03-25T22:05:22;96234.00;;;6.40
15062;BMP180;7630;50.306;8.566;2024-03-25T22:09:24;96244.00;;;6.50
15062;BMP180;7630;50.306;8.566;2024-03-25T22:13:25;96237.00;;;7.40
15062;BMP180;7630;50.306;8.566;2024-03-25T22:17:27;96234.00;;;6.80
15062;BMP180;7630;50.306;8.566;2024-03-25T22:21:29;96244.00;;;6.30
15062;BMP180;7630;50.306;8.566;2024-03-25T22:25:30;96236.00;;;7.60
15062;BMP180;7630;50.306;8.566;2024-03-25T22:29:31;96228.00;;;7.50
15062;BMP180;7630;50.306;8.566;2024-03-25T22:33:32;96231.00;;;7.10
15062;BMP180;7630;50.306;8.566;2024-03-25T22:37:33;96218.00;;;7.40
15062;BMP180;7630;50.306;8.566;2024-03-25T22:41:36;96217.00;;;7.80
15062;BMP180;7630;50.306;8.566;2024-03-25T22:45:37;96216.00;;;8.90
15062;BMP180;7630;50.306;8.566;2024-03-25T22:49:38;96219.00;;;7.50
15062;BMP180;7630;50.306;8.566;2024-03-25T22:53:39;96230.00;;;8.40
15062;BMP180;7630;50.306;8.566;2024-03-25T22:57:40;96236.00;;;8.80
15062;BMP180;7630;50.306;8.566;2024-03-25T23:01:41;96222.00;;;9.50
15062;BMP180;7630;50.306;8.566;2024-03-25T23:05:42;96219.00;;;9.50
15062;BMP180;7630;50.306;8.566;2024-03-25T23:09:43;96212.00;;;9.20
15062;BMP180;7630;50.306;8.566;2024-03-25T23:13:44;96212.00;;;9.20
15062;BMP180;7630;50.306;8.566;2024-03-25T23:17:45;96196.00;;;9.00
15062;BMP180;7630;50.306;8.566;2024-03-25T23:21:47;96200.00;;;8.60
15062;BMP180;7630;50.306;8.566;2024-03-25T23:25:48;96202.00;;;8.40
15062;BMP180;7630;50.306;8.566;2024-03-25T23:29:49;96199.00;;;8.50
15062;BMP180;7630;50.306;8.566;2024-03-25T23:33:50;96195.00;;;8.60
15062;BMP180;7630;50.306;8.566;2024-03-25T23:37:51;96195.00;;;8.30
15062;BMP180;7630;50.306;8.566;2024-03-25T23:41:52;96186.00;;;8.30
15062;BMP180;7630;50.306;8.566;2024-03-25T23:45:53;96189.00;;;7.80